createdAt,value
2019-02-18T00:00:45.212Z,8.70
2019-02-18T00:03:14.094Z,9.33
2019-02-18T00:05:42.745Z,9.63
2019-02-18T00:08:11.471Z,9.18
2019-02-18T00:10:40.257Z,8.95
2019-02-18T00:13:08.882Z,8.83
2019-02-18T00:15:37.568Z,9.63
2019-02-18T00:18:06.207Z,9.00
2019-02-18T00:20:34.846Z,9.53
2019-02-18T00:23:03.487Z,8.77
2019-02-18T00:25:32.131Z,9.28
2019-02-18T00:28:00.767Z,9.88
2019-02-18T00:30:29.591Z,11.20
2019-02-18T00:32:58.229Z,10.57
2019-02-18T00:35:26.849Z,10.25
2019-02-18T00:37:55.393Z,10.95
2019-02-18T00:40:24.130Z,10.07
2019-02-18T00:42:52.736Z,10.05
2019-02-18T00:45:21.596Z,10.25
2019-02-18T00:47:50.240Z,10.95
2019-02-18T00:50:18.861Z,10.75
2019-02-18T00:52:47.508Z,10.08
2019-02-18T00:55:16.193Z,11.25
2019-02-18T00:57:44.984Z,10.43
2019-02-18T01:00:16.326Z,10.60
2019-02-18T01:02:45.080Z,10.93
2019-02-18T01:05:14.003Z,10.67
2019-02-18T01:07:42.945Z,10.32
2019-02-18T01:10:12.753Z,10.78
2019-02-18T01:12:41.370Z,11.50
2019-02-18T01:15:12.429Z,11.33
2019-02-18T01:17:41.091Z,10.95
2019-02-18T01:20:12.265Z,12.28
2019-02-18T01:22:40.914Z,10.83
2019-02-18T01:25:11.832Z,10.65
2019-02-18T01:27:40.486Z,10.75
2019-02-18T01:30:14.687Z,12.13
2019-02-18T01:32:43.388Z,10.93
2019-02-18T01:35:12.132Z,10.95
2019-02-18T01:37:45.630Z,10.67
2019-02-18T01:40:13.167Z,10.72
2019-02-18T01:42:41.901Z,10.00
2019-02-18T01:45:14.815Z,10.75
2019-02-18T01:47:43.495Z,11.30
2019-02-18T01:50:13.982Z,9.80
2019-02-18T01:52:42.593Z,10.23
2019-02-18T01:55:12.645Z,10.93
2019-02-18T01:57:41.466Z,10.05
2019-02-18T02:00:13.087Z,10.25
2019-02-18T02:02:41.713Z,10.32
2019-02-18T02:05:12.357Z,11.03
2019-02-18T02:07:41.060Z,9.98
2019-02-18T02:10:12.040Z,10.35
2019-02-18T02:12:40.767Z,10.32
2019-02-18T02:15:12.332Z,10.68
2019-02-18T02:17:40.954Z,10.30
2019-02-18T02:20:09.707Z,9.93
2019-02-18T02:22:38.325Z,10.28
2019-02-18T02:25:07.284Z,10.63
2019-02-18T02:27:35.936Z,10.08
2019-02-18T02:30:06.772Z,9.85
2019-02-18T02:32:35.320Z,10.13
2019-02-18T02:35:04.059Z,9.77
2019-02-18T02:37:32.667Z,10.32
2019-02-18T02:40:01.380Z,10.38
2019-02-18T02:42:29.993Z,10.70
2019-02-18T02:44:58.679Z,9.63
2019-02-18T02:47:27.334Z,10.40
2019-02-18T02:49:55.970Z,10.70
2019-02-18T02:52:24.577Z,10.10
2019-02-18T02:54:53.355Z,10.13
2019-02-18T02:57:21.997Z,10.80
2019-02-18T02:59:50.716Z,10.25
2019-02-18T03:02:19.329Z,10.95
2019-02-18T03:04:48.247Z,10.85
2019-02-18T03:07:16.880Z,9.93
2019-02-18T03:09:45.505Z,10.13
2019-02-18T03:12:14.192Z,10.10
2019-02-18T03:14:42.906Z,9.60
2019-02-18T03:17:11.525Z,10.25
2019-02-18T03:19:40.388Z,10.40
2019-02-18T03:22:08.998Z,10.28
2019-02-18T03:24:37.618Z,10.58
2019-02-18T03:27:06.174Z,10.53
2019-02-18T03:29:50.179Z,10.43
2019-02-18T03:32:18.790Z,10.35
2019-02-18T03:34:47.419Z,10.90
2019-02-18T03:37:16.136Z,11.12
2019-02-18T03:39:44.789Z,10.63
2019-02-18T03:42:13.986Z,10.55
2019-02-18T03:44:42.874Z,10.25
2019-02-18T03:47:11.511Z,9.60
2019-02-18T03:49:40.110Z,9.75
2019-02-18T03:52:08.930Z,10.95
2019-02-18T03:54:37.569Z,11.18
2019-02-18T03:57:06.177Z,10.10
2019-02-18T03:59:34.840Z,11.18
2019-02-18T04:02:03.447Z,10.55
2019-02-18T04:04:32.086Z,11.15
2019-02-18T04:07:00.678Z,10.40
2019-02-18T04:09:29.291Z,10.48
2019-02-18T04:11:57.833Z,10.72
2019-02-18T04:14:26.464Z,10.78
2019-02-18T04:16:55.111Z,11.03
2019-02-18T04:19:23.759Z,10.15
2019-02-18T04:21:52.555Z,9.60
2019-02-18T04:24:21.031Z,10.25
2019-02-18T04:26:49.876Z,10.24
2019-02-18T04:29:18.494Z,10.93
2019-02-18T04:31:47.082Z,10.25
2019-02-18T04:34:15.707Z,11.18
2019-02-18T04:36:44.355Z,10.48
2019-02-18T04:39:12.974Z,10.28
2019-02-18T04:41:41.730Z,9.78
2019-02-18T04:44:10.339Z,10.35
2019-02-18T04:46:39.021Z,10.60
2019-02-18T04:49:07.645Z,10.20
2019-02-18T04:51:36.294Z,11.33
2019-02-18T04:54:04.949Z,10.53
2019-02-18T04:56:33.972Z,10.98
2019-02-18T04:59:02.590Z,10.57
2019-02-18T05:01:31.212Z,10.55
2019-02-18T05:03:59.857Z,11.10
2019-02-18T05:06:28.710Z,11.38
2019-02-18T05:09:05.062Z,11.47
2019-02-18T05:11:27.557Z,11.12
2019-02-18T05:13:56.259Z,11.75
2019-02-18T05:16:24.899Z,11.65
2019-02-18T05:18:53.503Z,12.25
2019-02-18T05:21:22.309Z,12.05
2019-02-18T05:23:50.916Z,10.68
2019-02-18T05:26:19.574Z,11.18
2019-02-18T05:28:48.257Z,12.23
2019-02-18T05:31:17.000Z,12.07
2019-02-18T05:33:45.590Z,10.90
2019-02-18T05:36:14.205Z,11.60
2019-02-18T05:38:42.935Z,11.53
2019-02-18T05:41:11.541Z,12.65
2019-02-18T05:43:40.156Z,11.08
2019-02-18T05:46:08.878Z,11.08
2019-02-18T05:48:37.500Z,11.55
2019-02-18T05:51:06.151Z,10.78
2019-02-18T05:53:34.801Z,11.55
2019-02-18T05:56:03.422Z,10.70
2019-02-18T05:58:32.037Z,11.38
2019-02-18T06:01:00.700Z,10.05
2019-02-18T06:03:29.231Z,10.32
2019-02-18T06:05:58.033Z,10.25
2019-02-18T06:08:26.749Z,10.45
2019-02-18T06:10:55.352Z,10.78
2019-02-18T06:13:23.996Z,10.63
2019-02-18T06:15:52.611Z,10.58
2019-02-18T06:18:21.250Z,10.68
2019-02-18T06:20:49.941Z,11.88
2019-02-18T06:23:18.554Z,10.65
2019-02-18T06:25:47.201Z,11.35
2019-02-18T06:28:15.928Z,11.93
2019-02-18T06:30:44.640Z,10.72
2019-02-18T06:33:13.296Z,11.37
2019-02-18T06:35:41.915Z,10.98
2019-02-18T06:38:10.627Z,10.95
2019-02-18T06:40:39.675Z,11.63
2019-02-18T06:43:08.282Z,12.00
2019-02-18T06:45:38.528Z,11.18
2019-02-18T06:48:08.820Z,11.08
2019-02-18T06:50:37.478Z,11.22
2019-02-18T06:53:06.123Z,10.77
2019-02-18T06:55:34.742Z,11.20
2019-02-18T06:58:04.918Z,11.70
2019-02-18T07:00:35.189Z,11.38
2019-02-18T07:03:20.392Z,11.48
2019-02-18T07:05:50.658Z,10.50
2019-02-18T07:08:29.678Z,10.95
2019-02-18T07:11:02.943Z,11.23
2019-02-18T07:13:31.595Z,10.90
2019-02-18T07:16:00.207Z,11.97
2019-02-18T07:18:28.835Z,10.93
2019-02-18T07:20:57.550Z,11.80
2019-02-18T07:23:26.202Z,11.08
2019-02-18T07:25:54.868Z,10.93
2019-02-18T07:28:23.551Z,11.70
2019-02-18T07:30:52.114Z,11.12
2019-02-18T07:33:20.767Z,11.38
2019-02-18T07:35:49.383Z,10.35
2019-02-18T07:38:18.041Z,11.60
2019-02-18T07:40:46.657Z,11.85
2019-02-18T07:43:15.310Z,12.30
2019-02-18T07:45:43.973Z,11.10
2019-02-18T07:48:12.483Z,11.27
2019-02-18T07:50:41.199Z,11.53
2019-02-18T07:53:09.869Z,10.43
2019-02-18T07:55:38.539Z,10.72
2019-02-18T07:58:07.522Z,11.15
2019-02-18T08:00:36.590Z,10.78
2019-02-18T08:03:05.285Z,10.60
2019-02-18T08:05:34.165Z,9.63
2019-02-18T08:08:02.879Z,9.10
2019-02-18T08:10:31.565Z,9.43
2019-02-18T08:13:00.107Z,9.30
2019-02-18T08:15:29.241Z,9.00
2019-02-18T08:17:57.785Z,10.25
2019-02-18T08:20:26.416Z,9.55
2019-02-18T08:22:55.063Z,9.83
2019-02-18T08:25:23.661Z,10.00
2019-02-18T08:27:52.272Z,9.85
2019-02-18T08:30:20.923Z,9.93
2019-02-18T08:32:49.545Z,10.65
2019-02-18T08:35:18.231Z,10.90
2019-02-18T08:37:46.984Z,11.22
2019-02-18T08:40:21.995Z,11.88
2019-02-18T08:42:46.093Z,11.65
2019-02-18T08:45:15.009Z,11.38
2019-02-18T08:47:43.631Z,10.98
2019-02-18T08:50:12.995Z,10.78
2019-02-18T08:52:41.620Z,11.28
2019-02-18T08:55:14.209Z,11.97
2019-02-18T08:57:42.839Z,11.80
2019-02-18T09:00:16.822Z,10.77
2019-02-18T09:02:45.643Z,11.05
2019-02-18T09:05:14.747Z,10.97
2019-02-18T09:07:43.555Z,10.50
2019-02-18T09:10:13.959Z,10.05
2019-02-18T09:12:42.772Z,11.15
2019-02-18T09:15:14.036Z,11.15
2019-02-18T09:17:45.714Z,10.53
2019-02-18T09:20:14.357Z,10.95
2019-02-18T09:22:47.469Z,10.65
2019-02-18T09:25:20.719Z,10.10
2019-02-18T09:27:51.202Z,10.80
2019-02-18T09:30:21.694Z,10.10
2019-02-18T09:32:50.483Z,10.55
2019-02-18T09:35:19.413Z,10.60
2019-02-18T09:37:48.025Z,10.70
2019-02-18T09:40:16.783Z,10.55
2019-02-18T09:42:45.504Z,10.93
2019-02-18T09:45:15.246Z,10.45
2019-02-18T09:47:43.872Z,11.08
2019-02-18T09:50:12.620Z,11.53
2019-02-18T09:52:41.297Z,10.23
2019-02-18T09:55:10.781Z,10.75
2019-02-18T09:57:40.786Z,10.88
2019-02-18T10:00:12.470Z,10.70
2019-02-18T10:02:41.301Z,11.22
2019-02-18T10:05:10.224Z,10.72
2019-02-18T10:07:38.965Z,11.28
2019-02-18T10:10:10.291Z,10.98
2019-02-18T10:12:38.907Z,11.65
2019-02-18T10:15:10.531Z,11.28
2019-02-18T10:17:40.615Z,10.95
2019-02-18T10:20:11.278Z,11.18
2019-02-18T10:22:39.936Z,10.65
2019-02-18T10:25:10.975Z,11.55
2019-02-18T10:27:39.763Z,10.35
2019-02-18T10:30:11.113Z,10.50
2019-02-18T10:32:40.002Z,9.20
2019-02-18T10:35:13.846Z,9.10
2019-02-18T10:37:42.569Z,9.97
2019-02-18T10:40:11.659Z,9.43
2019-02-18T10:42:40.379Z,9.50
2019-02-18T10:45:11.423Z,9.53
2019-02-18T10:47:40.622Z,9.60
2019-02-18T10:50:10.943Z,9.63
2019-02-18T10:52:39.783Z,9.15
2019-02-18T10:55:10.080Z,9.50
2019-02-18T10:57:39.315Z,9.40
2019-02-18T11:00:16.414Z,9.70
2019-02-18T11:02:45.464Z,9.57
2019-02-18T11:05:14.214Z,9.60
2019-02-18T11:07:43.173Z,9.50
2019-02-18T11:10:17.015Z,9.75
2019-02-18T11:12:47.470Z,9.80
2019-02-18T11:15:16.229Z,9.30
2019-02-18T11:17:45.847Z,9.78
2019-02-18T11:20:15.086Z,9.25
2019-02-18T11:22:43.696Z,9.95
2019-02-18T11:25:13.507Z,9.50
2019-02-18T11:27:42.383Z,9.58
2019-02-18T11:30:20.275Z,9.53
2019-02-18T11:32:48.885Z,9.68
2019-02-18T11:35:17.527Z,9.55
2019-02-18T11:37:46.144Z,9.60
2019-02-18T11:40:18.579Z,9.80
2019-02-18T11:42:47.235Z,8.88
2019-02-18T11:45:16.868Z,8.97
2019-02-18T11:47:45.488Z,9.18
2019-02-18T11:50:15.139Z,9.45
2019-02-18T11:52:43.747Z,9.13
2019-02-18T11:55:15.794Z,9.13
2019-02-18T11:57:44.774Z,9.68
2019-02-18T12:00:17.122Z,9.83
2019-02-18T12:02:45.807Z,9.65
2019-02-18T12:05:14.650Z,9.45
2019-02-18T12:07:43.346Z,9.88
2019-02-18T12:10:13.200Z,9.28
2019-02-18T12:12:42.076Z,9.05
2019-02-18T12:15:15.505Z,9.53
2019-02-18T12:17:44.148Z,9.47
2019-02-18T12:20:14.007Z,10.10
2019-02-18T12:22:42.809Z,9.13
2019-02-18T12:25:12.749Z,8.73
2019-02-18T12:27:41.723Z,9.65
2019-02-18T12:30:17.462Z,8.73
2019-02-18T12:32:46.077Z,8.88
2019-02-18T12:35:14.690Z,9.43
2019-02-18T12:37:43.337Z,8.88
2019-02-18T12:40:15.232Z,9.33
2019-02-18T12:42:44.035Z,9.13
2019-02-18T12:45:13.754Z,9.10
2019-02-18T12:47:42.560Z,9.33
2019-02-18T12:50:12.159Z,9.53
2019-02-18T12:52:41.371Z,8.75
2019-02-18T12:55:10.896Z,8.78
2019-02-18T12:57:39.922Z,9.10
2019-02-18T13:00:14.016Z,9.25
2019-02-18T13:02:44.582Z,8.80
2019-02-18T13:05:14.053Z,8.97
2019-02-18T13:07:42.722Z,9.35
2019-02-18T13:10:11.996Z,8.90
2019-02-18T13:12:41.115Z,9.53
2019-02-18T13:15:17.486Z,8.75
2019-02-18T13:17:46.187Z,9.60
2019-02-18T13:20:14.801Z,8.93
2019-02-18T13:22:43.449Z,8.45
2019-02-18T13:25:12.435Z,9.43
2019-02-18T13:27:43.844Z,9.00
2019-02-18T13:30:17.793Z,8.95
2019-02-18T13:32:46.541Z,8.85
2019-02-18T13:35:15.150Z,8.20
2019-02-18T13:37:43.793Z,8.60
2019-02-18T13:40:15.159Z,9.03
2019-02-18T13:42:44.154Z,9.90
2019-02-18T13:45:12.791Z,9.23
2019-02-18T13:47:41.429Z,9.33
2019-02-18T13:50:11.808Z,8.90
2019-02-18T13:52:40.468Z,8.95
2019-02-18T13:55:11.432Z,8.73
2019-02-18T13:57:41.091Z,8.88
2019-02-18T14:00:18.905Z,8.93
2019-02-18T14:02:48.134Z,8.23
2019-02-18T14:05:17.718Z,8.73
2019-02-18T14:07:46.376Z,8.28
2019-02-18T14:10:15.297Z,8.33
2019-02-18T14:12:44.045Z,8.73
2019-02-18T14:15:14.944Z,8.15
2019-02-18T14:17:43.602Z,8.90
2019-02-18T14:20:14.258Z,7.75
2019-02-18T14:22:42.953Z,7.22
2019-02-18T14:25:12.050Z,7.95
2019-02-18T14:27:42.345Z,8.28
2019-02-18T14:30:18.196Z,7.37
2019-02-18T14:32:46.878Z,6.90
2019-02-18T14:35:17.555Z,7.60
2019-02-18T14:37:46.323Z,7.72
2019-02-18T14:40:17.374Z,6.50
2019-02-18T14:42:46.195Z,6.53
2019-02-18T14:45:15.466Z,6.50
2019-02-18T14:47:44.628Z,6.62
2019-02-18T14:50:14.989Z,6.30
2019-02-18T14:52:44.783Z,7.50
2019-02-18T14:55:13.992Z,6.33
2019-02-18T14:57:42.796Z,6.75
2019-02-18T15:00:22.490Z,6.22
2019-02-18T15:02:55.530Z,6.47
2019-02-18T15:05:25.223Z,6.63
2019-02-18T15:07:53.880Z,7.08
2019-02-18T15:10:22.534Z,7.35
2019-02-18T15:12:51.511Z,6.35
2019-02-18T15:15:20.307Z,6.87
2019-02-18T15:17:48.956Z,6.37
2019-02-18T15:20:18.131Z,6.53
2019-02-18T15:22:46.833Z,6.50
2019-02-18T15:25:15.719Z,6.73
2019-02-18T15:27:44.489Z,7.20
2019-02-18T15:30:15.936Z,6.80
2019-02-18T15:32:44.596Z,6.42
2019-02-18T15:35:14.481Z,6.60
2019-02-18T15:37:43.567Z,7.17
2019-02-18T15:40:14.680Z,7.50
2019-02-18T15:42:43.327Z,6.75
2019-02-18T15:45:12.352Z,7.47
2019-02-18T15:47:41.046Z,6.62
2019-02-18T15:50:12.123Z,7.05
2019-02-18T15:52:41.002Z,6.72
2019-02-18T15:55:10.848Z,6.60
2019-02-18T15:57:39.649Z,6.80
2019-02-18T16:00:13.721Z,6.67
2019-02-18T16:02:42.368Z,6.83
2019-02-18T16:05:11.088Z,6.70
2019-02-18T16:07:40.053Z,6.60
2019-02-18T16:10:09.682Z,6.15
2019-02-18T16:12:38.311Z,6.80
2019-02-18T16:15:08.767Z,7.08
2019-02-18T16:17:37.487Z,6.75
2019-02-18T16:20:09.587Z,7.40
2019-02-18T16:22:38.271Z,6.97
2019-02-18T16:25:09.856Z,6.80
2019-02-18T16:27:38.490Z,6.90
2019-02-18T16:30:10.116Z,6.58
2019-02-18T16:32:39.330Z,6.72
2019-02-18T16:35:08.828Z,7.30
2019-02-18T16:37:37.858Z,7.03
2019-02-18T16:40:15.251Z,7.67
2019-02-18T16:42:43.868Z,8.20
2019-02-18T16:45:16.204Z,8.25
2019-02-18T16:47:44.967Z,9.20
2019-02-18T16:50:14.560Z,8.03
2019-02-18T16:52:43.248Z,7.92
2019-02-18T16:55:14.369Z,9.48
2019-02-18T16:57:43.079Z,8.60
2019-02-18T17:00:21.871Z,9.00
2019-02-18T17:02:51.103Z,11.10
2019-02-18T17:05:20.084Z,9.60
2019-02-18T17:07:48.719Z,8.28
2019-02-18T17:10:17.505Z,9.18
2019-02-18T17:12:46.426Z,9.10
2019-02-18T17:15:15.149Z,9.05
2019-02-18T17:17:43.752Z,9.60
2019-02-18T17:20:12.626Z,8.90
2019-02-18T17:22:41.415Z,8.68
2019-02-18T17:25:11.558Z,9.50
2019-02-18T17:27:40.350Z,8.73
2019-02-18T17:30:15.834Z,8.43
2019-02-18T17:32:44.442Z,8.65
2019-02-18T17:35:14.087Z,8.85
2019-02-18T17:37:42.747Z,7.97
2019-02-18T17:40:14.962Z,7.85
2019-02-18T17:42:44.064Z,7.70
2019-02-18T17:45:17.336Z,7.33
2019-02-18T17:47:46.050Z,7.33
2019-02-18T17:50:16.422Z,7.00
2019-02-18T17:52:45.465Z,7.60
2019-02-18T17:55:18.601Z,8.30
2019-02-18T17:57:47.397Z,7.85
2019-02-18T18:00:21.458Z,7.92
2019-02-18T18:02:50.162Z,8.00
2019-02-18T18:05:18.949Z,7.83
2019-02-18T18:07:47.616Z,6.47
2019-02-18T18:10:16.711Z,6.75
2019-02-18T18:12:45.706Z,6.43
2019-02-18T18:15:16.882Z,6.55
2019-02-18T18:17:45.809Z,6.62
2019-02-18T18:20:14.950Z,6.67
2019-02-18T18:22:43.858Z,6.22
2019-02-18T18:25:14.232Z,7.40
2019-02-18T18:27:42.831Z,7.45
2019-02-18T18:30:13.907Z,6.92
2019-02-18T18:32:42.567Z,7.08
2019-02-18T18:35:12.482Z,7.08
2019-02-18T18:37:41.366Z,7.08
2019-02-18T18:40:12.859Z,7.47
2019-02-18T18:42:41.854Z,7.42
2019-02-18T18:45:12.689Z,8.20
2019-02-18T18:47:41.448Z,8.45
2019-02-18T18:50:15.487Z,7.87
2019-02-18T18:52:44.644Z,7.45
2019-02-18T18:55:13.296Z,8.00
2019-02-18T18:57:41.909Z,7.60
2019-02-18T19:00:21.125Z,7.70
2019-02-18T19:02:50.210Z,8.45
2019-02-18T19:05:19.551Z,8.00
2019-02-18T19:07:48.163Z,7.80
2019-02-18T19:10:17.013Z,6.95
2019-02-18T19:12:45.915Z,8.75
2019-02-18T19:15:15.907Z,8.00
2019-02-18T19:17:44.710Z,7.90
2019-02-18T19:20:14.237Z,8.63
2019-02-18T19:22:43.158Z,8.38
2019-02-18T19:25:12.820Z,8.60
2019-02-18T19:27:41.964Z,8.55
2019-02-18T19:30:28.853Z,8.63
2019-02-18T19:32:57.733Z,8.68
2019-02-18T19:35:26.830Z,8.70
2019-02-18T19:37:55.964Z,9.55
2019-02-18T19:40:25.031Z,8.90
2019-02-18T19:42:54.166Z,8.73
2019-02-18T19:45:24.435Z,9.28
2019-02-18T19:47:53.683Z,8.90
2019-02-18T19:50:23.767Z,9.18
2019-02-18T19:52:52.756Z,9.28
2019-02-18T19:55:21.741Z,9.45
2019-02-18T19:57:50.744Z,9.30
2019-02-18T20:00:21.196Z,9.18
2019-02-18T20:02:50.266Z,9.00
2019-02-18T20:05:20.305Z,9.20
2019-02-18T20:07:49.403Z,9.65
2019-02-18T20:10:18.987Z,10.43
2019-02-18T20:12:48.098Z,10.73
2019-02-18T20:15:17.477Z,10.82
2019-02-18T20:17:46.567Z,10.43
2019-02-18T20:20:17.144Z,10.20
2019-02-18T20:22:46.199Z,10.18
2019-02-18T20:25:15.491Z,10.25
2019-02-18T20:27:45.007Z,10.23
2019-02-18T20:30:15.887Z,10.53
2019-02-18T20:32:46.169Z,10.10
2019-02-18T20:35:15.255Z,9.95
2019-02-18T20:37:44.678Z,10.38
2019-02-18T20:40:13.758Z,10.55
2019-02-18T20:42:44.354Z,10.40
2019-02-18T20:45:14.352Z,11.10
2019-02-18T20:47:43.495Z,10.53
2019-02-18T20:50:13.933Z,10.18
2019-02-18T20:52:43.320Z,10.60
2019-02-18T20:55:14.170Z,10.70
2019-02-18T20:57:43.148Z,10.18
2019-02-18T21:00:18.739Z,10.88
2019-02-18T21:02:48.210Z,10.90
2019-02-18T21:05:17.296Z,10.85
2019-02-18T21:07:46.290Z,10.72
2019-02-18T21:10:18.098Z,10.28
2019-02-18T21:12:47.266Z,10.10
2019-02-18T21:15:16.649Z,10.50
2019-02-18T21:17:45.622Z,10.78
2019-02-18T21:20:15.321Z,10.38
2019-02-18T21:22:44.560Z,10.72
2019-02-18T21:25:13.705Z,10.08
2019-02-18T21:27:42.405Z,10.03
2019-02-18T21:30:13.334Z,10.65
2019-02-18T21:32:41.969Z,9.87
2019-02-18T21:35:10.832Z,10.03
2019-02-18T21:37:39.446Z,9.88
2019-02-18T21:40:10.383Z,10.20
2019-02-18T21:42:39.157Z,9.53
2019-02-18T21:45:15.543Z,10.50
2019-02-18T21:47:44.262Z,10.53
2019-02-18T21:50:13.330Z,10.28
2019-02-18T21:52:42.223Z,10.20
2019-02-18T21:55:12.058Z,9.98
2019-02-18T21:57:40.703Z,10.05
2019-02-18T22:00:19.039Z,10.17
2019-02-18T22:02:48.149Z,10.03
2019-02-18T22:05:17.068Z,10.25
2019-02-18T22:07:45.682Z,9.65
2019-02-18T22:10:14.718Z,9.60
2019-02-18T22:12:43.444Z,9.60
2019-02-18T22:15:14.448Z,10.48
2019-02-18T22:17:43.796Z,9.70
2019-02-18T22:20:14.275Z,9.40
2019-02-18T22:22:42.996Z,10.10
2019-02-18T22:25:12.703Z,9.53
2019-02-18T22:27:41.354Z,9.63
2019-02-18T22:30:14.749Z,9.05
2019-02-18T22:32:43.363Z,11.20
2019-02-18T22:35:12.195Z,9.93
2019-02-18T22:37:40.865Z,9.63
2019-02-18T22:40:11.646Z,9.53
2019-02-18T22:42:40.282Z,9.90
2019-02-18T22:45:11.102Z,9.40
2019-02-18T22:47:39.850Z,9.63
2019-02-18T22:50:11.131Z,10.18
2019-02-18T22:52:41.344Z,10.32
2019-02-18T22:55:10.962Z,9.68
2019-02-18T22:57:41.018Z,9.60
2019-02-18T23:00:23.245Z,9.80
2019-02-18T23:02:51.860Z,10.40
2019-02-18T23:05:20.473Z,9.43
2019-02-18T23:07:49.203Z,9.45
2019-02-18T23:10:18.056Z,9.30
2019-02-18T23:12:46.753Z,10.23
2019-02-18T23:15:15.429Z,9.70
2019-02-18T23:17:44.232Z,9.38
2019-02-18T23:20:13.514Z,9.83
2019-02-18T23:22:42.097Z,9.28
2019-02-18T23:25:10.887Z,9.53
2019-02-18T23:27:39.540Z,10.25
2019-02-18T23:30:08.858Z,9.78
2019-02-18T23:32:37.495Z,9.30
2019-02-18T23:35:06.109Z,9.80
2019-02-18T23:37:35.338Z,9.33
2019-02-18T23:40:04.753Z,9.40
2019-02-18T23:42:33.354Z,9.53
2019-02-18T23:45:02.002Z,9.73
2019-02-18T23:47:30.628Z,10.45
2019-02-18T23:49:59.239Z,9.43
2019-02-18T23:52:27.965Z,9.88
2019-02-18T23:54:56.571Z,9.93
2019-02-18T23:57:25.176Z,9.70
2019-02-18T23:59:53.817Z,9.13
